createdAt,value
2019-02-06T00:01:15.465Z,108.40
2019-02-06T00:03:46.868Z,123.20
2019-02-06T00:06:18.343Z,94.60
2019-02-06T00:08:49.985Z,116.40
2019-02-06T00:11:21.310Z,120.00
2019-02-06T00:13:52.526Z,120.00
2019-02-06T00:16:23.876Z,108.80
2019-02-06T00:18:55.662Z,111.20
2019-02-06T00:21:27.039Z,103.00
2019-02-06T00:23:59.186Z,107.80
2019-02-06T00:26:30.571Z,102.20
2019-02-06T00:29:01.955Z,108.00
2019-02-06T00:31:33.409Z,119.20
2019-02-06T00:34:04.984Z,111.40
2019-02-06T00:36:37.414Z,106.00
2019-02-06T00:39:11.111Z,111.80
2019-02-06T00:41:42.677Z,113.60
2019-02-06T00:44:14.147Z,115.00
2019-02-06T00:46:45.445Z,108.40
2019-02-06T00:49:17.090Z,111.60
2019-02-06T00:51:48.505Z,102.80
2019-02-06T00:54:19.798Z,105.00
2019-02-06T00:56:51.422Z,113.40
2019-02-06T00:59:22.900Z,105.00
2019-02-06T01:01:54.736Z,110.60
2019-02-06T01:04:26.509Z,107.00
2019-02-06T01:06:57.964Z,115.20
2019-02-06T01:09:29.998Z,115.00
2019-02-06T01:12:01.435Z,111.80
2019-02-06T01:14:33.755Z,118.60
2019-02-06T01:17:05.300Z,121.80
2019-02-06T01:19:37.097Z,109.00
2019-02-06T01:22:08.608Z,107.00
2019-02-06T01:24:40.289Z,121.60
2019-02-06T01:27:12.210Z,121.60
2019-02-06T01:29:43.870Z,118.00
2019-02-06T01:32:15.312Z,115.40
2019-02-06T01:34:46.912Z,105.20
2019-02-06T01:37:18.699Z,116.40
2019-02-06T01:39:50.753Z,125.40
2019-02-06T01:42:22.638Z,116.00
2019-02-06T01:44:54.724Z,108.80
2019-02-06T01:47:26.466Z,122.60
2019-02-06T01:49:57.928Z,131.60
2019-02-06T01:52:30.219Z,127.20
2019-02-06T01:55:02.048Z,111.20
2019-02-06T01:57:33.449Z,123.40
2019-02-06T02:00:07.235Z,130.20
2019-02-06T02:02:42.457Z,120.00
2019-02-06T02:05:15.794Z,135.40
2019-02-06T02:07:47.905Z,134.20
2019-02-06T02:10:21.566Z,120.00
2019-02-06T02:12:53.212Z,112.80
2019-02-06T02:15:24.932Z,123.20
2019-02-06T02:17:57.272Z,129.80
2019-02-06T02:20:29.989Z,126.00
2019-02-06T02:23:01.633Z,133.20
2019-02-06T02:25:33.341Z,135.20
2019-02-06T02:28:05.126Z,144.20
2019-02-06T02:30:43.734Z,144.00
2019-02-06T02:33:15.572Z,147.40
2019-02-06T02:35:47.583Z,144.00
2019-02-06T02:38:19.103Z,150.00
2019-02-06T02:40:51.243Z,147.40
2019-02-06T02:43:22.503Z,158.40
2019-02-06T02:45:54.125Z,144.80
2019-02-06T02:48:25.423Z,146.00
2019-02-06T02:50:57.507Z,151.40
2019-02-06T02:53:28.969Z,150.80
2019-02-06T02:56:00.770Z,163.20
2019-02-06T02:58:32.082Z,176.20
2019-02-06T03:01:23.719Z,186.00
2019-02-06T03:04:15.595Z,187.00
2019-02-06T03:06:47.201Z,170.20
2019-02-06T03:09:19.997Z,169.20
2019-02-06T03:11:51.751Z,160.80
2019-02-06T03:14:23.310Z,153.80
2019-02-06T03:16:55.335Z,155.20
2019-02-06T03:19:26.915Z,149.80
2019-02-06T03:21:58.669Z,150.40
2019-02-06T03:24:30.143Z,158.20
2019-02-06T03:27:01.630Z,152.40
2019-02-06T03:29:33.101Z,156.60
2019-02-06T03:32:04.960Z,156.80
2019-02-06T03:34:36.189Z,149.60
2019-02-06T03:37:07.755Z,151.60
2019-02-06T03:39:39.574Z,156.40
2019-02-06T03:42:11.602Z,150.80
2019-02-06T03:44:43.411Z,141.40
2019-02-06T03:47:15.323Z,140.20
2019-02-06T03:49:46.512Z,149.40
2019-02-06T03:52:18.380Z,135.40
2019-02-06T03:54:49.881Z,142.60
2019-02-06T03:57:21.570Z,151.00
2019-02-06T03:59:53.113Z,133.80
2019-02-06T04:02:24.881Z,139.80
2019-02-06T04:04:56.477Z,149.00
2019-02-06T04:07:27.928Z,157.00
2019-02-06T04:09:59.439Z,153.60
2019-02-06T04:12:30.796Z,150.00
2019-02-06T04:15:02.870Z,172.75
2019-02-06T04:17:34.722Z,174.25
2019-02-06T04:20:07.301Z,158.40
2019-02-06T04:22:38.777Z,156.60
2019-02-06T04:25:10.535Z,130.40
2019-02-06T04:27:42.093Z,137.00
2019-02-06T04:30:14.457Z,127.60
2019-02-06T04:32:46.391Z,145.40
2019-02-06T04:35:18.256Z,137.60
2019-02-06T04:37:50.118Z,153.40
2019-02-06T04:40:22.143Z,130.80
2019-02-06T04:42:53.797Z,132.20
2019-02-06T04:45:25.604Z,147.40
2019-02-06T04:47:56.919Z,135.80
2019-02-06T04:50:28.492Z,145.80
2019-02-06T04:52:59.811Z,143.60
2019-02-06T04:55:32.742Z,150.60
2019-02-06T04:58:04.319Z,164.20
2019-02-06T05:00:35.941Z,148.80
2019-02-06T05:03:07.316Z,155.00
2019-02-06T05:05:38.675Z,147.00
2019-02-06T05:08:11.556Z,150.80
2019-02-06T05:10:43.081Z,136.00
2019-02-06T05:13:14.372Z,142.60
2019-02-06T05:15:45.933Z,138.60
2019-02-06T05:18:17.692Z,130.00
2019-02-06T05:20:49.293Z,147.40
2019-02-06T05:23:20.823Z,135.20
2019-02-06T05:25:52.856Z,147.40
2019-02-06T05:28:24.434Z,149.80
2019-02-06T05:30:56.145Z,164.00
2019-02-06T05:33:27.493Z,142.60
2019-02-06T05:35:59.293Z,159.80
2019-02-06T05:38:31.587Z,158.60
2019-02-06T05:41:03.151Z,154.60
2019-02-06T05:43:34.978Z,149.00
2019-02-06T05:46:06.503Z,173.20
2019-02-06T05:48:38.036Z,165.40
2019-02-06T05:51:09.547Z,161.00
2019-02-06T05:53:41.268Z,167.00
2019-02-06T05:56:12.682Z,169.80
2019-02-06T05:58:44.142Z,168.80
2019-02-06T06:01:17.467Z,166.60
2019-02-06T06:03:49.048Z,157.60
2019-02-06T06:06:20.626Z,158.00
2019-02-06T06:08:53.221Z,153.60
2019-02-06T06:11:24.389Z,145.60
2019-02-06T06:13:58.563Z,159.60
2019-02-06T06:16:30.216Z,163.40
2019-02-06T06:19:01.777Z,151.40
2019-02-06T06:21:33.649Z,159.60
2019-02-06T06:24:05.342Z,162.80
2019-02-06T06:26:39.506Z,152.60
2019-02-06T06:29:11.116Z,153.80
2019-02-06T06:31:42.698Z,150.60
2019-02-06T06:34:14.285Z,154.00
2019-02-06T06:36:46.100Z,149.00
2019-02-06T06:39:17.918Z,150.80
2019-02-06T06:41:49.481Z,139.60
2019-02-06T06:44:21.201Z,127.00
2019-02-06T06:46:52.688Z,137.40
2019-02-06T06:49:24.079Z,136.80
2019-02-06T06:51:55.951Z,128.00
2019-02-06T06:54:27.356Z,87.40
2019-02-06T06:56:58.686Z,122.00
2019-02-06T06:59:30.107Z,133.20
2019-02-06T07:02:01.528Z,123.40
2019-02-06T07:04:33.116Z,129.80
2019-02-06T07:07:04.563Z,131.40
2019-02-06T07:09:36.205Z,127.00
2019-02-06T07:12:07.964Z,118.60
2019-02-06T07:14:39.765Z,126.80
2019-02-06T07:17:11.409Z,125.00
2019-02-06T07:19:42.887Z,132.40
2019-02-06T07:22:14.656Z,133.40
2019-02-06T07:24:46.321Z,131.60
2019-02-06T07:27:20.922Z,133.80
2019-02-06T07:29:51.254Z,139.20
2019-02-06T07:32:23.076Z,127.60
2019-02-06T07:34:54.585Z,127.40
2019-02-06T07:37:29.605Z,125.20
2019-02-06T07:39:59.974Z,137.60
2019-02-06T07:42:31.873Z,131.20
2019-02-06T07:45:03.923Z,136.80
2019-02-06T07:47:35.195Z,119.80
2019-02-06T07:50:07.898Z,130.40
2019-02-06T07:52:39.300Z,132.20
2019-02-06T07:55:10.876Z,110.20
2019-02-06T07:57:45.283Z,118.00
2019-02-06T08:00:17.210Z,116.40
2019-02-06T08:02:49.819Z,114.00
2019-02-06T08:05:21.627Z,96.00
2019-02-06T08:07:53.407Z,96.20
2019-02-06T08:10:30.443Z,90.60
2019-02-06T08:13:02.580Z,89.20
2019-02-06T08:15:34.182Z,70.60
2019-02-06T08:18:06.957Z,82.20
2019-02-06T08:20:38.829Z,95.80
2019-02-06T08:23:10.748Z,103.20
2019-02-06T08:25:41.868Z,97.40
2019-02-06T08:28:13.559Z,89.80
2019-02-06T08:30:44.885Z,95.20
2019-02-06T08:33:17.331Z,90.80
2019-02-06T08:35:48.545Z,95.00
2019-02-06T08:38:20.219Z,93.80
2019-02-06T08:40:51.469Z,90.80
2019-02-06T08:43:24.493Z,89.80
2019-02-06T08:45:56.807Z,93.40
2019-02-06T08:48:28.626Z,104.60
2019-02-06T08:51:00.045Z,93.00
2019-02-06T08:53:32.057Z,99.60
2019-02-06T08:56:03.609Z,94.00
2019-02-06T08:58:35.788Z,96.80
2019-02-06T09:01:07.416Z,101.00
2019-02-06T09:03:38.827Z,109.80
2019-02-06T09:06:10.358Z,100.40
2019-02-06T09:08:41.792Z,105.80
2019-02-06T09:11:13.336Z,111.80
2019-02-06T09:13:44.647Z,102.20
2019-02-06T09:16:16.558Z,107.20
2019-02-06T09:18:48.410Z,120.00
2019-02-06T09:21:19.880Z,125.40
2019-02-06T09:23:51.398Z,109.60
2019-02-06T09:26:23.037Z,126.00
2019-02-06T09:28:54.386Z,125.40
2019-02-06T09:31:25.913Z,124.60
2019-02-06T09:33:57.385Z,126.40
2019-02-06T09:36:28.858Z,124.20
2019-02-06T09:39:11.097Z,134.40
2019-02-06T09:41:36.324Z,124.40
2019-02-06T09:44:07.866Z,111.20
2019-02-06T09:46:40.799Z,115.60
2019-02-06T09:49:15.042Z,115.80
2019-02-06T09:51:46.099Z,109.20
2019-02-06T09:54:18.948Z,117.00
2019-02-06T09:56:50.857Z,119.00
2019-02-06T09:59:22.514Z,101.00
2019-02-06T10:01:54.625Z,101.60
2019-02-06T10:04:27.080Z,117.40
2019-02-06T10:06:59.069Z,115.00
2019-02-06T10:09:30.763Z,114.00
2019-02-06T10:12:02.468Z,109.20
2019-02-06T10:14:35.056Z,116.60
2019-02-06T10:17:07.003Z,118.40
2019-02-06T10:19:38.928Z,118.00
2019-02-06T10:22:10.427Z,112.20
2019-02-06T10:24:41.978Z,97.20
2019-02-06T10:27:14.096Z,121.00
2019-02-06T10:29:45.406Z,113.00
2019-02-06T10:32:16.683Z,122.20
2019-02-06T10:34:47.824Z,97.40
2019-02-06T10:37:19.460Z,90.20
2019-02-06T10:39:51.122Z,97.00
2019-02-06T10:42:22.603Z,104.00
2019-02-06T10:44:54.381Z,108.00
2019-02-06T10:47:25.943Z,100.80
2019-02-06T10:49:57.407Z,97.00
2019-02-06T10:52:28.883Z,104.20
2019-02-06T10:55:00.482Z,99.60
2019-02-06T10:57:32.170Z,96.60
2019-02-06T11:00:03.901Z,99.60
2019-02-06T11:02:36.971Z,98.40
2019-02-06T11:05:08.580Z,95.80
2019-02-06T11:07:40.367Z,93.40
2019-02-06T11:10:12.500Z,95.80
2019-02-06T11:12:44.578Z,97.00
2019-02-06T11:15:16.312Z,93.60
2019-02-06T11:17:48.105Z,92.40
2019-02-06T11:20:20.519Z,86.80
2019-02-06T11:22:52.184Z,86.80
2019-02-06T11:25:24.022Z,92.80
2019-02-06T11:27:56.015Z,97.00
2019-02-06T11:30:29.789Z,82.80
2019-02-06T11:33:01.539Z,89.40
2019-02-06T11:35:33.454Z,89.40
2019-02-06T11:38:06.404Z,86.00
2019-02-06T11:40:38.263Z,88.80
2019-02-06T11:43:10.291Z,98.80
2019-02-06T11:45:42.464Z,83.80
2019-02-06T11:48:14.252Z,84.20
2019-02-06T11:50:46.069Z,76.80
2019-02-06T11:53:26.535Z,83.00
2019-02-06T11:55:58.930Z,89.80
2019-02-06T11:58:30.405Z,100.00
2019-02-06T12:01:21.131Z,89.80
2019-02-06T12:03:52.720Z,106.60
2019-02-06T12:06:24.327Z,110.00
2019-02-06T12:08:56.130Z,114.80
2019-02-06T12:11:28.117Z,103.00
2019-02-06T12:13:59.674Z,110.60
2019-02-06T12:16:31.503Z,106.60
2019-02-06T12:19:02.834Z,95.80
2019-02-06T12:21:34.728Z,121.80
2019-02-06T12:24:07.510Z,119.40
2019-02-06T12:26:39.250Z,98.00
2019-02-06T12:29:11.951Z,113.60
2019-02-06T12:31:43.310Z,111.00
2019-02-06T12:34:15.688Z,137.20
2019-02-06T12:36:46.843Z,137.00
2019-02-06T12:39:18.101Z,142.40
2019-02-06T12:41:49.158Z,123.00
2019-02-06T12:44:21.683Z,147.40
2019-02-06T12:46:53.081Z,133.80
2019-02-06T12:49:24.794Z,130.40
2019-02-06T12:51:56.458Z,121.20
2019-02-06T12:54:27.961Z,127.60
2019-02-06T12:56:59.775Z,133.60
2019-02-06T12:59:31.421Z,131.00
2019-02-06T13:02:03.152Z,134.60
2019-02-06T13:04:35.238Z,143.00
2019-02-06T13:07:06.688Z,127.40
2019-02-06T13:09:38.578Z,142.20
2019-02-06T13:12:11.552Z,128.40
2019-02-06T13:14:43.778Z,143.80
2019-02-06T13:17:15.419Z,131.60
2019-02-06T13:19:46.727Z,146.00
2019-02-06T13:22:18.207Z,135.60
2019-02-06T13:24:49.958Z,144.60
2019-02-06T13:27:22.742Z,136.60
2019-02-06T13:29:54.159Z,135.80
2019-02-06T13:32:28.723Z,140.80
2019-02-06T13:35:00.333Z,155.60
2019-02-06T13:37:32.274Z,147.00
2019-02-06T13:40:03.528Z,147.20
2019-02-06T13:42:34.620Z,138.00
2019-02-06T13:45:07.760Z,160.20
2019-02-06T13:47:40.451Z,164.40
2019-02-06T13:50:21.547Z,152.00
2019-02-06T13:52:45.654Z,155.60
2019-02-06T13:55:18.861Z,162.00
2019-02-06T13:57:51.054Z,155.80
2019-02-06T14:00:24.515Z,150.20
2019-02-06T14:02:56.255Z,150.40
2019-02-06T14:05:29.115Z,134.80
2019-02-06T14:08:02.731Z,143.80
2019-02-06T14:10:33.998Z,129.40
2019-02-06T14:13:08.537Z,120.80
2019-02-06T14:15:42.128Z,114.60
2019-02-06T14:18:13.762Z,129.20
2019-02-06T14:20:45.847Z,126.00
2019-02-06T14:23:57.479Z,133.20
2019-02-06T14:26:45.063Z,127.00
2019-02-06T14:29:31.396Z,130.40
2019-02-06T14:32:16.576Z,128.00
2019-02-06T14:35:37.711Z,123.00
2019-02-06T14:38:50.139Z,129.40
2019-02-06T14:42:00.300Z,123.20
2019-02-06T14:45:09.313Z,114.80
2019-02-06T14:48:13.448Z,109.20
2019-02-06T14:50:59.560Z,104.40
2019-02-06T14:54:11.198Z,106.00
2019-02-06T14:57:20.235Z,110.80
2019-02-06T15:00:18.095Z,102.20
2019-02-06T15:03:28.804Z,103.00
2019-02-06T15:06:39.220Z,93.00
2019-02-06T15:09:46.144Z,97.20
2019-02-06T15:12:57.271Z,85.60
2019-02-06T15:15:59.767Z,91.40
2019-02-06T15:19:25.902Z,89.60
2019-02-06T15:22:25.779Z,91.40
2019-02-06T15:25:52.304Z,75.60
2019-02-06T15:28:59.751Z,74.60
2019-02-06T15:31:59.165Z,78.20
2019-02-06T15:35:07.310Z,74.40
2019-02-06T15:38:02.096Z,66.80
2019-02-06T15:41:13.160Z,73.00
2019-02-06T15:44:38.687Z,69.80
2019-02-06T15:47:51.360Z,65.20
2019-02-06T15:50:58.884Z,68.20
2019-02-06T15:53:44.908Z,69.80
2019-02-06T15:56:41.876Z,73.80
2019-02-06T15:59:59.340Z,71.00
2019-02-06T16:02:42.817Z,69.60
2019-02-06T16:05:50.068Z,68.20
2019-02-06T16:08:53.177Z,70.60
2019-02-06T16:12:00.363Z,68.80
2019-02-06T16:15:07.030Z,73.00
2019-02-06T16:18:25.132Z,70.00
2019-02-06T16:21:29.636Z,73.40
2019-02-06T16:24:35.412Z,76.20
2019-02-06T16:27:26.277Z,76.40
2019-02-06T16:30:43.966Z,68.80
2019-02-06T16:33:37.316Z,77.60
2019-02-06T16:36:41.753Z,70.00
2019-02-06T16:39:48.761Z,76.20
2019-02-06T16:43:08.839Z,73.60
2019-02-06T16:46:17.895Z,78.60
2019-02-06T16:49:18.262Z,75.60
2019-02-06T16:52:39.531Z,70.80
2019-02-06T16:55:57.062Z,77.40
2019-02-06T16:58:43.039Z,72.60
2019-02-06T17:01:49.929Z,73.00
2019-02-06T17:04:34.065Z,82.60
2019-02-06T17:07:56.101Z,67.60
2019-02-06T17:10:58.677Z,72.40
2019-02-06T17:14:17.526Z,70.80
2019-02-06T17:17:13.304Z,74.00
2019-02-06T17:20:27.224Z,75.20
2019-02-06T17:23:22.062Z,73.00
2019-02-06T17:26:20.320Z,75.60
2019-02-06T17:29:24.100Z,73.20
2019-02-06T17:32:22.420Z,71.80
2019-02-06T17:35:29.152Z,63.20
2019-02-06T17:38:29.069Z,75.80
2019-02-06T17:41:23.927Z,69.20
2019-02-06T17:44:12.682Z,70.60
2019-02-06T17:47:13.684Z,67.60
2019-02-06T17:50:27.398Z,65.80
2019-02-06T17:53:59.998Z,63.00
2019-02-06T17:56:31.397Z,66.60
2019-02-06T17:59:05.741Z,63.20
2019-02-06T18:01:49.218Z,62.60
2019-02-06T18:04:33.306Z,61.00
2019-02-06T18:07:07.050Z,66.00
2019-02-06T18:09:38.913Z,63.00
2019-02-06T18:12:10.789Z,61.80
2019-02-06T18:14:43.252Z,62.40
2019-02-06T18:17:14.811Z,62.60
2019-02-06T18:19:47.328Z,66.00
2019-02-06T18:22:19.106Z,60.20
2019-02-06T18:24:50.759Z,57.80
2019-02-06T18:27:22.220Z,61.00
2019-02-06T18:29:53.896Z,61.40
2019-02-06T18:32:25.247Z,61.00
2019-02-06T18:34:56.690Z,55.80
2019-02-06T18:37:28.017Z,60.60
2019-02-06T18:40:02.661Z,59.60
2019-02-06T18:42:38.693Z,64.80
2019-02-06T18:45:14.869Z,61.00
2019-02-06T18:47:47.246Z,63.40
2019-02-06T18:50:22.915Z,64.80
2019-02-06T18:52:54.550Z,67.80
2019-02-06T18:55:27.340Z,69.40
2019-02-06T18:57:59.313Z,65.80
2019-02-06T19:00:32.716Z,73.60
2019-02-06T19:03:11.402Z,67.40
2019-02-06T19:05:42.554Z,63.20
2019-02-06T19:08:17.117Z,69.00
2019-02-06T19:10:54.022Z,69.00
2019-02-06T19:13:25.730Z,69.00
2019-02-06T19:15:57.013Z,69.40
2019-02-06T19:18:28.049Z,69.40
2019-02-06T19:21:03.160Z,62.40
2019-02-06T19:23:41.167Z,63.80
2019-02-06T19:26:12.513Z,68.80
2019-02-06T19:28:49.665Z,70.60
2019-02-06T19:31:24.784Z,72.60
2019-02-06T19:33:56.127Z,70.00
2019-02-06T19:36:27.977Z,74.60
2019-02-06T19:39:01.263Z,74.40
2019-02-06T19:41:37.896Z,71.00
2019-02-06T19:44:12.540Z,75.60
2019-02-06T19:46:49.144Z,74.00
2019-02-06T19:49:20.382Z,84.00
2019-02-06T19:51:51.673Z,76.20
2019-02-06T19:54:22.862Z,70.20
2019-02-06T19:56:54.125Z,75.60
2019-02-06T19:59:30.247Z,75.80
2019-02-06T20:02:09.128Z,74.60
2019-02-06T20:04:40.475Z,79.60
2019-02-06T20:07:11.673Z,86.60
2019-02-06T20:09:53.017Z,82.40
2019-02-06T20:12:37.602Z,81.20
2019-02-06T20:15:15.285Z,86.00
2019-02-06T20:17:49.657Z,76.00
2019-02-06T20:20:31.399Z,84.00
2019-02-06T20:23:02.949Z,84.80
2019-02-06T20:25:34.485Z,85.60
2019-02-06T20:28:05.875Z,69.40
2019-02-06T20:30:43.026Z,62.80
2019-02-06T20:33:17.855Z,80.40
2019-02-06T20:35:50.511Z,87.20
2019-02-06T20:38:22.096Z,75.80
2019-02-06T20:41:00.666Z,72.00
2019-02-06T20:44:07.007Z,77.40
2019-02-06T20:46:38.228Z,70.80
2019-02-06T20:49:09.667Z,82.60
2019-02-06T20:51:42.167Z,79.00
2019-02-06T20:54:13.584Z,80.20
2019-02-06T20:56:44.931Z,73.60
2019-02-06T20:59:16.083Z,73.60
2019-02-06T21:01:47.459Z,77.20
2019-02-06T21:04:18.718Z,74.00
2019-02-06T21:06:49.966Z,77.80
2019-02-06T21:09:21.610Z,64.60
2019-02-06T21:11:53.252Z,71.60
2019-02-06T21:14:24.766Z,74.60
2019-02-06T21:16:56.705Z,72.80
2019-02-06T21:19:28.307Z,78.40
2019-02-06T21:21:59.631Z,73.20
2019-02-06T21:24:30.787Z,76.40
2019-02-06T21:27:02.331Z,70.00
2019-02-06T21:29:33.590Z,71.40
2019-02-06T21:32:05.400Z,78.20
2019-02-06T21:34:36.910Z,82.80
2019-02-06T21:37:08.334Z,68.80
2019-02-06T21:39:39.529Z,74.40
2019-02-06T21:42:11.025Z,70.80
2019-02-06T21:44:42.541Z,74.40
2019-02-06T21:47:14.404Z,69.60
2019-02-06T21:49:45.798Z,71.40
2019-02-06T21:52:17.618Z,69.80
2019-02-06T21:54:49.123Z,70.60
2019-02-06T21:57:20.638Z,74.20
2019-02-06T21:59:52.000Z,70.80
2019-02-06T22:02:23.253Z,68.00
2019-02-06T22:04:54.364Z,67.60
2019-02-06T22:07:25.920Z,71.60
2019-02-06T22:09:57.178Z,71.60
2019-02-06T22:12:28.776Z,70.60
2019-02-06T22:14:59.977Z,74.00
2019-02-06T22:17:31.345Z,70.40
2019-02-06T22:20:02.477Z,66.20
2019-02-06T22:22:33.836Z,68.60
2019-02-06T22:25:06.156Z,68.80
2019-02-06T22:27:37.809Z,70.60
2019-02-06T22:30:12.093Z,66.00
2019-02-06T22:32:43.556Z,67.80
2019-02-06T22:35:14.871Z,59.40
2019-02-06T22:37:46.888Z,60.20
2019-02-06T22:40:19.889Z,66.40
2019-02-06T22:42:51.735Z,67.80
2019-02-06T22:45:25.025Z,60.60
2019-02-06T22:47:56.468Z,63.20
2019-02-06T22:50:28.900Z,62.60
2019-02-06T22:53:00.694Z,65.80
2019-02-06T22:55:32.304Z,65.80
2019-02-06T22:58:04.005Z,65.60
2019-02-06T23:01:00.519Z,63.80
2019-02-06T23:03:35.712Z,60.00
2019-02-06T23:06:08.533Z,62.00
2019-02-06T23:08:39.763Z,63.20
2019-02-06T23:11:12.431Z,68.40
2019-02-06T23:13:45.614Z,66.20
2019-02-06T23:16:17.337Z,64.00
2019-02-06T23:18:48.626Z,66.00
2019-02-06T23:21:20.703Z,57.00
2019-02-06T23:23:52.155Z,61.20
2019-02-06T23:26:27.124Z,63.60
2019-02-06T23:28:58.990Z,62.60
2019-02-06T23:31:30.856Z,59.00
2019-02-06T23:34:02.235Z,62.00
2019-02-06T23:36:33.966Z,67.60
2019-02-06T23:39:13.599Z,62.40
2019-02-06T23:41:44.961Z,56.80
2019-02-06T23:44:16.692Z,60.80
2019-02-06T23:46:48.564Z,63.60
2019-02-06T23:49:19.832Z,57.60
2019-02-06T23:51:51.190Z,65.40
2019-02-06T23:54:22.440Z,65.40
2019-02-06T23:56:54.573Z,63.00
2019-02-06T23:59:26.334Z,61.80
